Time;durP1;ratioP1;P1;durP2;ratioP2;P2;SDS_P1;SDS_P2;PMS_P1;PMS_P2;Temp;Humidity;BMP_temperature;BMP_pressure;BME280_temperature;BME280_humidity;BME280_pressure;Samples;Min_cycle;Max_cycle;Signal;HPM_P1;HPM_P2
2023/09/07 00:01:37;;;;;;;12.67;4.97;;;;;;;-143.84;66.21;45070.00;5091821;28;20474;-54
2023/09/07 00:04:06;;;;;;;5.40;4.70;;;;;;;-143.84;66.07;45073.81;5091713;28;20451;-54
2023/09/07 00:06:34;;;;;;;7.60;5.20;;;;;;;-143.84;66.27;45121.44;5091713;28;20447;-54
2023/09/07 00:09:03;;;;;;;13.47;4.63;;;;;;;-143.84;66.91;45066.22;5091616;28;20444;-54
2023/09/07 00:11:31;;;;;;;8.97;5.00;;;;;;;-143.84;67.07;45098.56;5091440;28;20450;-54
2023/09/07 00:13:59;;;;;;;8.50;4.77;;;;;;;-143.84;65.97;45089.06;5091732;28;20505;-54
2023/09/07 00:16:26;;;;;;;7.10;4.83;;;;;;;-143.84;66.62;45073.81;5091796;28;20540;-54
2023/09/07 00:18:53;;;;;;;9.53;5.10;;;;;;;-143.84;65.86;45089.06;5091504;28;20444;-54
2023/09/07 00:21:20;;;;;;;7.27;5.10;;;;;;;-143.84;65.34;45066.22;5091239;28;20945;-54
2023/09/07 00:23:47;;;;;;;5.90;5.40;;;;;;;-143.84;65.38;45085.25;5091138;28;20573;-54
2023/09/07 00:26:16;;;;;;;6.17;4.97;;;;;;;-143.84;65.39;45087.16;5091261;28;20428;-54
2023/09/07 00:28:43;;;;;;;10.30;4.73;;;;;;;-143.84;64.25;45068.13;5091398;28;20459;-54
2023/09/07 00:31:10;;;;;;;6.87;4.43;;;;;;;-143.84;63.77;45075.72;5091170;28;21157;-56
2023/09/07 00:33:37;;;;;;;6.60;4.47;;;;;;;-143.84;63.28;45070.00;5091597;28;20440;-57
2023/09/07 00:36:04;;;;;;;8.23;5.50;;;;;;;-143.84;62.78;45102.38;5091350;28;20483;-58
2023/09/07 00:38:32;;;;;;;7.30;4.80;;;;;;;-143.84;62.63;45049.06;5091046;28;20446;-58
2023/09/07 00:40:59;;;;;;;5.60;5.10;;;;;;;-143.84;62.40;45085.25;5091556;28;20435;-58
2023/09/07 00:43:27;;;;;;;10.03;5.53;;;;;;;-143.84;61.83;45083.34;5091450;28;20443;-58
2023/09/07 00:45:55;;;;;;;8.30;4.63;;;;;;;-143.84;61.13;45064.31;5091186;28;20444;-57
2023/09/07 00:48:23;;;;;;;14.70;5.33;;;;;;;-143.84;61.41;45068.13;5091259;28;20436;-57
2023/09/07 00:50:51;;;;;;;5.03;4.63;;;;;;;-143.84;60.82;45106.19;5091142;28;20513;-57
2023/09/07 00:53:18;;;;;;;5.00;4.60;;;;;;;-143.84;60.74;45083.34;5090826;28;20440;-57
2023/09/07 00:55:46;;;;;;;5.57;4.63;;;;;;;-143.84;59.96;45064.31;5090706;28;20569;-57
2023/09/07 00:58:14;;;;;;;8.27;5.40;;;;;;;-143.84;59.92;45077.63;5090270;28;20513;-57
2023/09/07 01:00:42;;;;;;;5.20;4.70;;;;;;;-143.84;59.30;45068.13;5091011;28;20435;-57
2023/09/07 01:03:10;;;;;;;5.10;4.60;;;;;;;-143.84;59.15;45068.13;5090708;28;20436;-57
2023/09/07 01:05:44;;;;;;;5.23;4.70;;;;;;;-143.84;58.70;45096.66;5090656;28;20979;-57
2023/09/07 01:08:17;;;;;;;7.37;5.00;;;;;;;-143.84;58.00;45094.78;5090789;28;20496;-57
2023/09/07 01:10:44;;;;;;;5.30;4.63;;;;;;;-143.84;57.65;45054.78;5090740;28;20519;-57
2023/09/07 01:13:11;;;;;;;6.33;4.80;;;;;;;-143.84;56.88;45077.63;5090484;28;20443;-57
2023/09/07 01:15:38;;;;;;;6.23;4.50;;;;;;;-143.84;56.42;45068.13;5090356;28;20475;-57
2023/09/07 01:18:09;;;;;;;5.47;4.47;;;;;;;-143.84;55.93;45075.72;5090322;28;20832;-58
2023/09/07 01:20:37;;;;;;;9.83;4.33;;;;;;;-143.84;55.46;45085.25;5090103;28;20505;-58
2023/09/07 01:23:06;;;;;;;5.07;4.10;;;;;;;-143.84;55.66;45098.56;5089992;28;20439;-58
2023/09/07 01:25:34;;;;;;;7.20;4.27;;;;;;;-143.84;55.88;45089.06;5090047;28;20456;-57
2023/09/07 01:28:02;;;;;;;14.80;5.07;;;;;;;-143.84;56.41;45077.63;5089919;28;20440;-57
2023/09/07 01:30:29;;;;;;;11.17;4.57;;;;;;;-143.84;56.82;45079.53;5090166;28;20505;-57
2023/09/07 01:32:56;;;;;;;15.97;4.80;;;;;;;-143.84;57.62;45068.13;5090058;28;20439;-57
2023/09/07 01:35:24;;;;;;;9.90;4.93;;;;;;;-143.84;57.88;45058.59;5089743;28;20467;-57
2023/09/07 01:37:51;;;;;;;5.53;4.90;;;;;;;-143.84;58.55;45075.72;5089983;28;20439;-57
2023/09/07 01:40:20;;;;;;;12.07;4.33;;;;;;;-143.84;59.17;45068.13;5090195;28;20440;-57
2023/09/07 01:42:47;;;;;;;12.73;5.30;;;;;;;-143.84;59.83;45068.13;5089803;28;20455;-57
2023/09/07 01:45:13;;;;;;;4.87;4.47;;;;;;;-143.84;60.60;45083.34;5090077;28;20432;-58
2023/09/07 01:47:40;;;;;;;8.93;4.70;;;;;;;-143.84;61.35;45077.63;5089899;28;20450;-57
2023/09/07 01:50:08;;;;;;;5.77;5.10;;;;;;;-143.84;62.19;45083.34;5089811;28;20831;-57
2023/09/07 01:52:35;;;;;;;6.90;5.30;;;;;;;-143.84;62.88;45070.00;5089941;28;20534;-57
2023/09/07 01:55:02;;;;;;;11.90;5.10;;;;;;;-143.84;63.34;45079.53;5089814;28;20447;-57
2023/09/07 01:57:32;;;;;;;5.63;4.97;;;;;;;-143.84;63.49;45083.34;5089863;28;20443;-57
2023/09/07 01:59:59;;;;;;;6.00;5.33;;;;;;;-143.84;64.89;45085.25;5089322;28;20487;-57
2023/09/07 02:02:26;;;;;;;8.13;6.07;;;;;;;-143.84;65.80;45098.56;5089482;28;20444;-57
2023/09/07 02:04:53;;;;;;;8.07;5.80;;;;;;;-143.84;67.00;45094.78;5089482;28;20489;-57
2023/09/07 02:07:21;;;;;;;11.57;6.43;;;;;;;-143.84;68.71;45085.25;5089541;28;20494;-57
2023/09/07 02:09:48;;;;;;;10.13;6.67;;;;;;;-143.84;69.52;45081.44;5089442;28;20484;-57
2023/09/07 02:12:15;;;;;;;7.27;6.20;;;;;;;-143.84;70.32;45075.72;5089395;28;20443;-57
2023/09/07 02:14:43;;;;;;;7.77;6.97;;;;;;;-143.84;71.33;45075.72;5089403;28;20444;-55
2023/09/07 02:17:14;;;;;;;9.90;7.40;;;;;;;-143.84;71.98;45102.38;5088961;28;20471;-55
2023/09/07 02:19:41;;;;;;;10.03;7.87;;;;;;;-143.84;72.48;45094.78;5089057;28;20539;-55
2023/09/07 02:22:08;;;;;;;8.37;7.40;;;;;;;-143.84;73.09;45071.91;5089200;28;20436;-55
2023/09/07 02:24:35;;;;;;;12.43;7.73;;;;;;;-143.84;73.57;45077.63;5088820;28;20440;-55
2023/09/07 02:27:02;;;;;;;11.63;8.20;;;;;;;-143.84;73.93;45066.22;5088926;28;20436;-55
2023/09/07 02:29:29;;;;;;;14.67;8.50;;;;;;;-143.84;74.10;45096.66;5089227;28;20960;-55
2023/09/07 02:31:58;;;;;;;10.23;8.17;;;;;;;-143.84;73.76;45096.66;5089127;28;20439;-55
2023/09/07 02:34:25;;;;;;;10.77;8.17;;;;;;;-143.84;73.79;45098.56;5088612;28;20831;-55
2023/09/07 02:36:52;;;;;;;9.67;7.87;;;;;;;-143.84;73.76;45106.19;5088737;28;20484;-55
2023/09/07 02:39:19;;;;;;;10.33;7.77;;;;;;;-143.84;74.01;45104.28;5088720;28;20513;-55
2023/09/07 02:41:47;;;;;;;13.30;8.03;;;;;;;-143.84;74.43;45094.78;5088613;28;20459;-55
2023/09/07 02:44:14;;;;;;;11.03;9.20;;;;;;;-143.84;74.90;45087.16;5088971;28;20440;-55
2023/09/07 02:46:41;;;;;;;13.17;9.00;;;;;;;-143.84;75.38;45104.28;5088672;28;20509;-55
2023/09/07 02:49:09;;;;;;;10.47;7.53;;;;;;;-143.84;75.50;45106.19;5088474;28;20450;-55
2023/09/07 02:51:36;;;;;;;12.20;9.60;;;;;;;-143.84;76.43;45094.78;5088627;28;20941;-55
2023/09/07 02:54:05;;;;;;;16.63;8.30;;;;;;;-143.84;75.83;45096.66;5088518;28;20432;-55
2023/09/07 02:56:32;;;;;;;10.60;8.73;;;;;;;-143.84;76.11;45125.22;5088451;28;20537;-55
2023/09/07 02:58:59;;;;;;;12.50;7.37;;;;;;;-143.84;75.92;45100.47;5088392;28;20475;-55
2023/09/07 03:01:27;;;;;;;12.00;7.90;;;;;;;-143.84;75.55;45094.78;5088578;28;20436;-55
2023/09/07 03:03:54;;;;;;;12.73;8.77;;;;;;;-143.84;75.21;45083.34;5088496;28;20436;-55
2023/09/07 03:06:22;;;;;;;12.57;8.17;;;;;;;-143.84;74.95;45096.66;5088282;28;20509;-55
2023/09/07 03:08:50;;;;;;;9.23;7.90;;;;;;;-143.84;74.13;45092.88;5088349;28;20587;-55
2023/09/07 03:11:17;;;;;;;11.87;8.77;;;;;;;-143.84;73.36;45075.72;5088249;28;20436;-55
2023/09/07 03:13:45;;;;;;;11.10;7.97;;;;;;;-143.84;72.53;45066.22;5091169;28;20534;-55
2023/09/07 03:16:12;;;;;;;11.73;7.97;;;;;;;-143.84;72.22;45081.44;5092461;28;20487;-55
2023/09/07 03:18:39;;;;;;;23.20;7.80;;;;;;;-143.84;71.89;45098.56;5092572;28;20436;-55
2023/09/07 03:21:06;;;;;;;9.00;7.20;;;;;;;-143.84;71.38;45079.53;5092662;28;20432;-55
2023/09/07 03:23:35;;;;;;;12.17;7.67;;;;;;;-143.84;70.89;45090.97;5092564;28;20473;-55
2023/09/07 03:26:02;;;;;;;17.63;7.80;;;;;;;-143.84;70.93;45111.91;5092445;28;20439;-55
2023/09/07 03:28:29;;;;;;;13.07;6.70;;;;;;;-143.84;70.70;45094.78;5092558;28;20438;-55
2023/09/07 03:30:56;;;;;;;8.30;6.67;;;;;;;-143.84;70.57;45117.63;5092400;28;20439;-55
2023/09/07 03:33:24;;;;;;;17.33;7.67;;;;;;;-143.84;70.35;45096.66;5092231;28;20436;-55
2023/09/07 03:35:51;;;;;;;12.83;7.23;;;;;;;-143.84;70.33;45085.25;5092404;28;21399;-55
2023/09/07 03:38:18;;;;;;;10.87;7.40;;;;;;;-143.84;70.08;45077.63;5092356;28;20479;-55
2023/09/07 03:40:47;;;;;;;12.23;8.00;;;;;;;-143.84;70.12;45113.81;5092408;28;20440;-55
2023/09/07 03:43:14;;;;;;;12.20;7.50;;;;;;;-143.84;70.23;45106.19;5089978;28;20451;-55
2023/09/07 03:45:41;;;;;;;13.60;7.53;;;;;;;-143.84;70.12;45098.56;5092003;28;20447;-55
2023/09/07 03:48:09;;;;;;;13.07;6.43;;;;;;;-143.84;70.14;45085.25;5090754;28;20452;-55
2023/09/07 03:50:36;;;;;;;18.53;7.50;;;;;;;-143.84;69.69;45087.16;5091653;28;20447;-55
2023/09/07 03:53:04;;;;;;;12.10;6.73;;;;;;;-143.84;69.93;45115.72;5091465;28;20874;-55
2023/09/07 03:55:31;;;;;;;8.40;6.50;;;;;;;-143.84;69.84;45106.19;5068737;28;20552;-55
2023/09/07 03:58:00;;;;;;;9.00;6.63;;;;;;;-143.84;70.50;45090.97;5057037;28;20453;-55
2023/09/07 04:00:27;;;;;;;9.77;6.43;;;;;;;-143.84;70.94;45110.00;5050252;28;20482;-55
2023/09/07 04:02:54;;;;;;;18.23;7.60;;;;;;;-143.84;71.17;45106.19;5050570;28;21238;-54
2023/09/07 04:05:23;;;;;;;11.80;7.10;;;;;;;-143.84;71.36;45092.88;5051180;28;20445;-55
2023/09/07 04:07:52;;;;;;;10.17;6.90;;;;;;;-143.84;71.37;45081.44;5050976;28;20457;-55
2023/09/07 04:10:19;;;;;;;15.10;6.50;;;;;;;-143.84;71.45;45087.16;5051101;28;20508;-55
2023/09/07 04:12:46;;;;;;;7.40;6.60;;;;;;;-143.84;71.33;45087.16;5051276;28;20434;-55
2023/09/07 04:15:15;;;;;;;9.10;6.67;;;;;;;-143.84;71.18;45106.19;5051647;28;20487;-55
2023/09/07 04:17:42;;;;;;;16.73;6.90;;;;;;;-143.84;70.48;45100.47;5060208;28;20477;-55
2023/09/07 04:20:11;;;;;;;12.00;7.07;;;;;;;-143.84;70.84;45102.38;5071013;28;20476;-55
2023/09/07 04:22:39;;;;;;;11.67;6.30;;;;;;;-143.84;70.59;45106.19;5071120;28;20441;-55
2023/09/07 04:25:07;;;;;;;11.30;6.53;;;;;;;-143.84;70.40;45100.47;5070736;28;20823;-55
2023/09/07 04:27:34;;;;;;;20.23;7.40;;;;;;;-143.84;70.38;45089.06;5070974;28;20947;-55
2023/09/07 04:30:01;;;;;;;12.63;6.87;;;;;;;-143.84;70.11;45090.97;5070325;28;20440;-55
2023/09/07 04:32:30;;;;;;;10.20;7.10;;;;;;;-143.84;69.96;45096.66;5070886;28;20860;-55
2023/09/07 04:34:59;;;;;;;13.57;6.10;;;;;;;-143.84;69.85;45113.81;5070556;28;20464;-55
2023/09/07 04:37:26;;;;;;;12.30;6.63;;;;;;;-143.84;69.83;45070.00;5070399;28;20484;-55
2023/09/07 04:39:54;;;;;;;7.63;6.17;;;;;;;-143.84;69.62;45073.81;5070250;28;20429;-55
2023/09/07 04:42:21;;;;;;;16.00;6.23;;;;;;;-143.84;69.60;45079.53;5070608;28;20436;-55
2023/09/07 04:44:49;;;;;;;11.03;6.30;;;;;;;-143.84;69.06;45098.56;5070712;28;20468;-55
2023/09/07 04:47:16;;;;;;;7.20;5.70;;;;;;;-143.84;67.99;45096.66;5070828;28;21087;-55
2023/09/07 04:49:50;;;;;;;11.30;6.30;;;;;;;-143.84;67.10;45083.34;5070510;28;20441;-55
2023/09/07 04:52:18;;;;;;;7.90;6.07;;;;;;;-143.84;65.82;45098.56;5067440;28;20963;-55
2023/09/07 04:54:45;;;;;;;9.20;6.40;;;;;;;-143.84;64.33;45079.53;5070403;28;20441;-55
2023/09/07 04:57:12;;;;;;;13.50;6.40;;;;;;;-143.84;62.69;45075.72;5070279;28;20998;-55
2023/09/07 04:59:39;;;;;;;8.97;6.17;;;;;;;-143.84;61.09;45056.69;5070179;28;21107;-55
2023/09/07 05:02:06;;;;;;;8.47;5.87;;;;;;;-143.84;59.96;45037.66;5070250;28;20437;-55
2023/09/07 05:04:33;;;;;;;13.93;6.83;;;;;;;-143.84;58.63;45083.34;5070289;28;20441;-55
2023/09/07 05:07:02;;;;;;;8.57;5.30;;;;;;;-143.84;56.88;45052.88;5070323;28;20432;-55
2023/09/07 05:09:30;;;;;;;10.40;5.17;;;;;;;-143.84;55.42;45022.41;5070199;28;20519;-55
2023/09/07 05:11:57;;;;;;;8.10;5.50;;;;;;;-143.84;53.44;45050.97;5069731;28;20455;-55
2023/09/07 05:14:25;;;;;;;8.60;5.83;;;;;;;-143.84;53.15;45052.88;5069691;28;20443;-55
2023/09/07 05:16:52;;;;;;;6.80;5.23;;;;;;;-143.84;52.32;45041.44;5069923;28;20473;-55
2023/09/07 05:19:19;;;;;;;7.40;5.67;;;;;;;-143.84;51.13;45028.13;5067239;28;20445;-55
2023/09/07 05:21:46;;;;;;;10.23;5.70;;;;;;;-143.84;49.93;45026.22;5069884;28;20447;-55
2023/09/07 05:24:16;;;;;;;13.90;5.37;;;;;;;-143.84;50.13;45026.22;5069867;28;20433;-55
2023/09/07 05:26:43;;;;;;;16.93;5.30;;;;;;;-143.84;48.78;45041.44;5069844;28;20449;-55
2023/09/07 05:29:10;;;;;;;14.10;5.10;;;;;;;-143.84;48.77;45028.13;5069774;28;20443;-55
2023/09/07 05:31:38;;;;;;;11.40;5.17;;;;;;;-143.84;47.95;45033.84;5069742;28;21080;-55
2023/09/07 05:34:05;;;;;;;5.60;4.60;;;;;;;-143.84;47.68;45009.09;5069832;28;20772;-55
2023/09/07 05:36:32;;;;;;;12.70;5.90;;;;;;;-143.84;47.57;45018.59;5068550;28;20480;-55
2023/09/07 05:39:01;;;;;;;12.93;4.97;;;;;;;-143.84;47.36;44999.56;5069551;28;20441;-55
2023/09/07 05:41:30;;;;;;;14.47;5.50;;;;;;;-143.84;46.61;45022.41;5069398;28;20449;-55
2023/09/07 05:43:57;;;;;;;12.40;5.70;;;;;;;-143.84;46.75;45028.13;5069556;28;21334;-55
2023/09/07 05:46:24;;;;;;;6.97;5.47;;;;;;;-143.84;46.94;45035.75;5069623;28;20452;-55
2023/09/07 05:48:52;;;;;;;9.83;5.17;;;;;;;-143.84;46.54;45018.59;5069609;28;20440;-55
2023/09/07 05:51:19;;;;;;;8.63;4.93;;;;;;;-143.84;46.69;45010.97;5069752;28;20498;-55
2023/09/07 05:53:46;;;;;;;6.37;4.67;;;;;;;-143.84;46.70;45016.69;5069574;28;20443;-55
2023/09/07 05:56:13;;;;;;;6.90;4.30;;;;;;;-143.84;46.52;45007.19;5069220;28;20445;-53
2023/09/07 05:58:42;;;;;;;12.57;6.13;;;;;;;-143.84;46.62;45003.38;5069445;28;21030;-57
2023/09/07 06:01:09;;;;;;;10.03;5.23;;;;;;;-143.84;46.54;45030.03;5069102;28;20872;-57
2023/09/07 06:03:36;;;;;;;12.10;5.53;;;;;;;-143.84;47.00;45009.09;5068908;28;20440;-57
2023/09/07 06:06:03;;;;;;;15.30;4.80;;;;;;;-143.84;46.62;44982.41;5068887;28;20444;-57
2023/09/07 06:08:30;;;;;;;11.30;5.27;;;;;;;-143.84;46.81;45018.59;5068975;28;20510;-57
2023/09/07 06:10:58;;;;;;;12.43;5.27;;;;;;;-143.84;47.07;44993.84;5068579;28;20444;-57
2023/09/07 06:13:25;;;;;;;11.30;5.10;;;;;;;-143.84;46.54;44990.03;5069109;28;20539;-57
2023/09/07 06:15:53;;;;;;;12.80;4.53;;;;;;;-143.84;46.66;44984.31;5068700;28;20436;-57
2023/09/07 06:18:20;;;;;;;8.00;4.57;;;;;;;-143.84;46.36;44997.66;5068618;28;20558;-57
2023/09/07 06:20:47;;;;;;;7.10;5.40;;;;;;;-143.84;45.67;44993.84;5063035;28;20531;-57
2023/09/07 06:23:14;;;;;;;7.27;4.70;;;;;;;-143.84;45.60;44988.13;5058489;28;20817;-58
2023/09/07 06:25:42;;;;;;;8.87;4.50;;;;;;;-143.84;45.61;45020.50;5069098;28;20437;-57
2023/09/07 06:28:09;;;;;;;14.20;4.70;;;;;;;-143.84;45.15;45003.38;5068152;28;20437;-57
2023/09/07 06:30:36;;;;;;;8.33;4.50;;;;;;;-143.84;44.71;44980.53;5068866;28;20965;-57
2023/09/07 06:33:05;;;;;;;7.83;5.17;;;;;;;-143.84;44.29;44982.41;5068867;28;20441;-57
2023/09/07 06:35:32;;;;;;;9.53;5.20;;;;;;;-143.84;43.93;44984.31;5068563;28;20449;-58
2023/09/07 06:37:59;;;;;;;14.43;5.20;;;;;;;-143.84;43.08;44969.09;5068430;28;20477;-57
2023/09/07 06:40:27;;;;;;;13.70;4.37;;;;;;;-143.84;43.69;44980.53;5068808;28;20495;-57
2023/09/07 06:42:56;;;;;;;10.47;5.00;;;;;;;-143.84;43.45;44965.28;5068390;28;20439;-57
2023/09/07 06:45:23;;;;;;;6.17;4.40;;;;;;;-143.84;43.05;44957.66;5068380;28;20526;-57
2023/09/07 06:47:51;;;;;;;9.30;4.40;;;;;;;-143.84;42.60;44950.06;5068658;28;20706;-57
2023/09/07 06:50:21;;;;;;;15.40;4.40;;;;;;;-143.84;42.41;44980.53;5068355;28;20970;-57
2023/09/07 06:52:48;;;;;;;20.63;4.60;;;;;;;-143.84;41.64;44980.53;5068557;28;20524;-57
2023/09/07 06:55:15;;;;;;;10.80;4.40;;;;;;;-143.84;42.14;44953.88;5068198;28;20790;-57
2023/09/07 06:57:42;;;;;;;9.20;4.70;;;;;;;-143.84;42.21;44961.47;5068033;28;20500;-56
2023/09/07 07:00:11;;;;;;;5.00;4.40;;;;;;;-143.84;42.08;44940.53;5068186;28;20492;-57
2023/09/07 07:02:39;;;;;;;9.30;4.37;;;;;;;-143.84;42.10;44936.72;5068106;28;20524;-57
2023/09/07 07:05:08;;;;;;;12.63;4.30;;;;;;;-143.84;40.68;44948.16;5068275;28;20520;-57
2023/09/07 07:07:36;;;;;;;7.23;4.37;;;;;;;-143.84;41.26;44944.34;5068103;28;20437;-58
2023/09/07 07:10:04;;;;;;;13.17;4.43;;;;;;;-143.84;40.80;44932.91;5068311;28;20440;-57
2023/09/07 07:12:34;;;;;;;6.73;4.67;;;;;;;-143.84;40.66;44944.34;5068143;28;20539;-57
2023/09/07 07:15:01;;;;;;;7.00;4.03;;;;;;;-143.84;40.49;44917.69;5068539;28;20807;-57
2023/09/07 07:17:28;;;;;;;8.07;4.00;;;;;;;-143.84;40.06;44911.97;5068358;28;20473;-57
2023/09/07 07:19:55;;;;;;;15.80;4.70;;;;;;;-143.84;40.11;44927.19;5068408;28;20429;-57
2023/09/07 07:22:23;;;;;;;9.50;3.87;;;;;;;-143.84;40.19;44911.97;5068002;28;20437;-57
2023/09/07 07:24:51;;;;;;;6.90;4.00;;;;;;;-143.84;39.39;44917.69;5067697;28;20558;-57
2023/09/07 07:27:18;;;;;;;12.83;4.70;;;;;;;-143.84;39.40;44931.00;5067995;28;20452;-57
2023/09/07 07:29:46;;;;;;;14.17;4.37;;;;;;;-143.84;38.61;44923.41;5067764;28;20453;-58
2023/09/07 07:32:13;;;;;;;9.00;3.93;;;;;;;-143.84;38.89;44921.50;5068425;28;20504;-57
2023/09/07 07:34:40;;;;;;;6.60;4.17;;;;;;;-143.84;39.35;44921.50;5067861;28;20490;-57
2023/09/07 07:37:07;;;;;;;11.97;4.57;;;;;;;-143.84;38.92;44948.16;5067785;28;20848;-57
2023/09/07 07:39:34;;;;;;;4.73;3.50;;;;;;;-143.84;37.96;44910.06;5067788;28;20510;-57
2023/09/07 07:42:05;;;;;;;9.17;4.00;;;;;;;-143.84;38.14;44932.91;5068124;28;21076;-57
2023/09/07 07:44:33;;;;;;;8.80;4.40;;;;;;;-143.84;38.44;44915.78;5067295;28;20454;-57
2023/09/07 07:47:00;;;;;;;11.50;4.20;;;;;;;-143.84;38.43;44931.00;5068061;28;20972;-57
2023/09/07 07:49:27;;;;;;;8.80;4.20;;;;;;;-143.84;38.32;44921.50;5067837;28;20448;-57
2023/09/07 07:51:55;;;;;;;7.90;3.73;;;;;;;-143.84;38.35;44921.50;5067663;28;21025;-57
2023/09/07 07:54:24;;;;;;;11.97;4.47;;;;;;;-143.84;38.81;44894.84;5067662;28;20568;-57
2023/09/07 07:56:52;;;;;;;11.07;4.00;;;;;;;-143.84;38.72;44925.31;5067597;28;20445;-57
2023/09/07 07:59:20;;;;;;;9.60;4.83;;;;;;;-143.84;39.49;44919.59;5068695;28;20487;-57
2023/09/07 08:01:47;;;;;;;9.00;4.10;;;;;;;-143.84;38.95;44911.97;5071449;28;20943;-57
2023/09/07 08:04:15;;;;;;;5.60;4.43;;;;;;;-143.84;39.58;44911.97;5071597;28;20824;-57
2023/09/07 08:06:43;;;;;;;6.10;4.13;;;;;;;-143.84;39.34;44944.34;5071333;28;20507;-57
2023/09/07 08:09:10;;;;;;;5.53;4.60;;;;;;;-143.84;40.36;44917.69;5071226;28;20789;-57
2023/09/07 08:11:38;;;;;;;6.87;4.97;;;;;;;-143.84;41.07;44923.41;5071533;28;20444;-57
2023/09/07 08:14:05;;;;;;;7.80;5.20;;;;;;;-143.84;40.66;44942.44;5070755;28;20512;-57
2023/09/07 08:16:34;;;;;;;7.93;5.30;;;;;;;-143.84;40.48;44942.44;5071315;28;20444;-57
2023/09/07 08:19:01;;;;;;;8.63;4.73;;;;;;;-143.84;40.61;44919.59;5071166;28;20472;-57
2023/09/07 08:21:28;;;;;;;6.30;4.50;;;;;;;-143.84;41.31;44929.09;5071520;28;20516;-57
2023/09/07 08:23:56;;;;;;;14.33;4.10;;;;;;;-143.84;41.74;44950.06;5071246;28;20885;-57
2023/09/07 08:26:23;;;;;;;6.13;4.40;;;;;;;-143.84;40.97;44925.31;5071122;28;20527;-57
2023/09/07 08:28:50;;;;;;;16.90;4.77;;;;;;;-143.84;40.52;44887.22;5070396;28;20586;-57
2023/09/07 08:31:21;;;;;;;6.27;4.50;;;;;;;-143.84;41.36;44877.69;5070982;28;20489;-57
2023/09/07 08:33:51;;;;;;;6.57;3.93;;;;;;;-143.84;40.86;44919.59;5070844;28;20989;-57
2023/09/07 08:36:22;;;;;;;6.40;4.97;;;;;;;-143.84;41.33;44944.34;5070786;28;20439;-57
2023/09/07 08:38:49;;;;;;;8.33;4.37;;;;;;;-143.84;39.89;44894.84;5070774;28;20476;-57
2023/09/07 08:41:16;;;;;;;26.03;5.43;;;;;;;-143.84;39.87;44896.75;5070700;28;20494;-58
2023/09/07 08:43:47;;;;;;;8.10;4.03;;;;;;;-143.84;40.52;44921.50;5070020;28;20502;-57
2023/09/07 08:46:16;;;;;;;7.93;4.03;;;;;;;-143.84;40.29;44906.25;5070865;28;21060;-57
2023/09/07 08:48:44;;;;;;;11.70;3.97;;;;;;;-143.84;39.25;44910.06;5070556;28;20436;-58
2023/09/07 08:51:14;;;;;;;7.30;4.00;;;;;;;-143.84;39.50;44900.53;5070430;28;20943;-57
2023/09/07 08:53:45;;;;;;;18.17;4.10;;;;;;;-143.84;39.88;44864.38;5070748;28;20452;-57
2023/09/07 08:56:14;;;;;;;12.90;4.50;;;;;;;-143.84;39.74;44873.88;5070419;28;20934;-57
2023/09/07 08:58:41;;;;;;;11.00;5.33;;;;;;;-143.84;38.15;44877.69;5069630;28;20500;-57
2023/09/07 09:01:09;;;;;;;13.50;5.30;;;;;;;-143.84;38.29;44883.41;5070608;28;20437;-57
2023/09/07 09:03:37;;;;;;;9.23;4.07;;;;;;;-143.84;39.66;44900.53;5070328;28;20541;-57
2023/09/07 09:06:05;;;;;;;7.17;4.63;;;;;;;-143.84;39.47;44879.59;5070126;28;20432;-57
2023/09/07 09:08:45;;;;;;;5.90;3.97;;;;;;;-143.84;39.72;44906.25;5070654;28;20437;-57
2023/09/07 09:11:12;;;;;;;6.67;4.40;;;;;;;-143.84;38.96;44904.34;5070088;28;20433;-57
2023/09/07 09:13:41;;;;;;;8.23;4.60;;;;;;;-143.84;39.15;44887.22;5069578;28;20445;-57
2023/09/07 09:16:08;;;;;;;15.80;4.20;;;;;;;-143.84;38.66;44885.31;5070070;28;20503;-57
2023/09/07 09:18:35;;;;;;;13.50;4.97;;;;;;;-143.84;39.79;44892.94;5070038;28;20484;-57
2023/09/07 09:21:03;;;;;;;8.23;4.20;;;;;;;-143.84;38.24;44873.88;5069910;28;20439;-57
2023/09/07 09:23:33;;;;;;;11.17;4.20;;;;;;;-143.84;38.08;44902.44;5070022;28;20437;-57
2023/09/07 09:26:03;;;;;;;9.40;5.00;;;;;;;-143.84;37.64;44892.94;5069989;28;20433;-57
2023/09/07 09:28:32;;;;;;;13.73;4.33;;;;;;;-143.84;37.76;44885.31;5069462;28;20866;-57
2023/09/07 09:31:00;;;;;;;11.93;4.80;;;;;;;-143.84;37.87;44883.41;5069544;28;20501;-57
2023/09/07 09:33:27;;;;;;;6.47;4.57;;;;;;;-143.84;37.59;44915.78;5069743;28;21087;-57
2023/09/07 09:35:56;;;;;;;11.60;5.27;;;;;;;-143.84;37.70;44871.97;5069703;28;20456;-57
2023/09/07 09:38:23;;;;;;;9.07;4.57;;;;;;;-143.84;38.31;44910.06;5069541;28;20483;-57
2023/09/07 09:40:51;;;;;;;10.03;4.10;;;;;;;-143.84;38.80;44894.84;5069476;28;20485;-57
2023/09/07 09:43:21;;;;;;;8.73;4.67;;;;;;;-143.84;37.48;44891.03;5069084;28;20448;-57
2023/09/07 09:45:50;;;;;;;12.30;4.90;;;;;;;-143.84;38.19;44870.09;5070033;28;21256;-57
2023/09/07 09:48:19;;;;;;;18.93;5.13;;;;;;;-143.84;37.25;44877.69;5069179;28;20514;-59
2023/09/07 09:50:48;;;;;;;5.90;4.40;;;;;;;-143.84;38.04;44908.16;5069222;28;20436;-57
2023/09/07 09:53:18;;;;;;;12.30;4.70;;;;;;;-143.84;37.90;44891.03;5069332;28;20437;-57
2023/09/07 09:55:47;;;;;;;12.67;5.10;;;;;;;-143.84;38.03;44889.13;5069456;28;20919;-57
2023/09/07 09:58:14;;;;;;;9.40;5.13;;;;;;;-143.84;37.75;44894.84;5068585;28;20489;-57
2023/09/07 10:00:44;;;;;;;9.10;4.67;;;;;;;-143.84;37.96;44892.94;5069719;28;20792;-58
2023/09/07 10:03:16;;;;;;;19.40;4.50;;;;;;;-143.84;38.75;44927.19;5063535;28;20469;-57
2023/09/07 10:05:45;;;;;;;11.53;4.77;;;;;;;-143.84;38.40;44902.44;5060539;28;20453;-57
2023/09/07 10:08:14;;;;;;;14.00;5.63;;;;;;;-143.84;37.89;44917.69;5069216;28;20441;-58
2023/09/07 10:10:43;;;;;;;7.30;4.50;;;;;;;-143.84;38.85;44904.34;5063130;28;20446;-57
2023/09/07 10:13:10;;;;;;;9.63;5.13;;;;;;;-143.84;39.09;44944.34;5055277;28;20453;-57
2023/09/07 10:15:38;;;;;;;7.10;5.30;;;;;;;-143.84;38.88;44917.69;5049077;28;20471;-57
2023/09/07 10:18:11;;;;;;;13.73;5.40;;;;;;;-143.84;38.22;44927.19;5048941;28;20928;-57
2023/09/07 10:20:56;;;;;;;22.13;5.13;;;;;;;-143.84;39.55;44934.81;5048836;28;21017;-57
2023/09/07 10:23:24;;;;;;;12.10;5.03;;;;;;;-143.84;40.35;44900.53;5048659;28;20552;-57
2023/09/07 10:25:53;;;;;;;9.93;5.00;;;;;;;-143.84;39.58;44927.19;5048746;28;20422;-57
2023/09/07 10:28:24;;;;;;;12.50;5.23;;;;;;;-143.84;40.88;44927.19;5048522;28;21061;-57
2023/09/07 10:31:04;;;;;;;10.47;5.07;;;;;;;-143.84;39.64;44919.59;5048783;28;20909;-57
2023/09/07 10:33:34;;;;;;;7.57;4.73;;;;;;;-143.84;40.71;44923.41;5048986;28;20520;-57
2023/09/07 10:36:02;;;;;;;8.40;5.90;;;;;;;-143.84;39.98;44910.06;5048676;28;20456;-57
2023/09/07 10:38:29;;;;;;;15.70;5.37;;;;;;;-143.84;40.24;44889.13;5048477;28;20484;-57
2023/09/07 10:40:58;;;;;;;7.87;4.40;;;;;;;-143.84;39.86;44936.72;5047909;28;20936;-57
2023/09/07 10:43:26;;;;;;;10.30;5.07;;;;;;;-143.84;40.01;44955.75;5048457;28;21124;-57
2023/09/07 10:45:54;;;;;;;10.60;4.43;;;;;;;-143.84;40.60;44915.78;5048641;28;20560;-57
2023/09/07 10:48:22;;;;;;;10.67;5.17;;;;;;;-143.84;41.34;44931.00;5048580;28;20442;-57
2023/09/07 10:50:51;;;;;;;9.13;5.10;;;;;;;-143.84;40.82;44921.50;5048588;28;20925;-57
2023/09/07 10:53:27;;;;;;;10.53;5.17;;;;;;;-143.84;41.03;44908.16;5048191;28;20441;-57
2023/09/07 10:55:55;;;;;;;15.90;5.20;;;;;;;-143.84;40.18;44898.66;5047803;28;20440;-58
2023/09/07 10:58:31;;;;;;;10.33;5.17;;;;;;;-143.84;40.34;44931.00;5047832;28;20588;-57
2023/09/07 11:01:00;;;;;;;18.33;5.60;;;;;;;-143.84;41.27;44931.00;5048270;28;20472;-57
2023/09/07 11:03:29;;;;;;;7.63;4.90;;;;;;;-143.84;40.41;44944.34;5054208;28;20834;-58
2023/09/07 11:06:03;;;;;;;13.37;5.30;;;;;;;-143.84;41.64;44950.06;5061493;28;20452;-58
2023/09/07 11:08:31;;;;;;;8.10;5.20;;;;;;;-143.84;41.63;44892.94;5068288;28;20460;-58
2023/09/07 11:10:58;;;;;;;6.60;4.83;;;;;;;-143.84;40.90;44921.50;5067835;28;20486;-57
2023/09/07 11:13:26;;;;;;;14.47;7.00;;;;;;;-143.84;41.29;44944.34;5061344;28;20584;-57
2023/09/07 11:15:55;;;;;;;7.20;4.30;;;;;;;-143.84;41.36;44923.41;5050413;28;20446;-57
2023/09/07 11:18:23;;;;;;;9.80;5.00;;;;;;;-143.84;42.27;44961.47;5049968;28;20531;-58